Time;durP1;ratioP1;P1;durP2;ratioP2;P2;SDS_P1;SDS_P2;PMS_P1;PMS_P2;Temp;Humidity;BMP_temperature;BMP_pressure;BME280_temperature;BME280_humidity;BME280_pressure;Samples;Min_cycle;Max_cycle;Signal;HPM_P1;HPM_P2
2022/03/29 00:00:48;;;;;;;55.25;28.17;;;;;;;;;;5017545;28;20116;-76
2022/03/29 00:03:13;;;;;;;58.63;28.15;;;;;;;;;;5019050;28;20083;-76
2022/03/29 00:05:39;;;;;;;57.70;29.90;;;;;;;;;;5019035;28;20082;-76
2022/03/29 00:08:05;;;;;;;56.22;28.05;;;;;;;;;;5001378;28;20036;-77
2022/03/29 00:10:30;;;;;;;58.72;27.75;;;;;;;;;;5018377;28;20101;-76
2022/03/29 00:12:56;;;;;;;56.17;28.17;;;;;;;;;;5001005;28;20049;-76
2022/03/29 00:15:22;;;;;;;60.85;28.48;;;;;;;;;;5001093;28;20044;-76
2022/03/29 00:17:47;;;;;;;57.67;29.08;;;;;;;;;;5003069;28;20201;-76
2022/03/29 00:20:13;;;;;;;61.13;29.63;;;;;;;;;;5018600;28;20044;-76
2022/03/29 00:22:41;;;;;;;58.03;28.95;;;;;;;;;;5000390;28;22368;-77
2022/03/29 00:25:10;;;;;;;59.45;29.70;;;;;;;;;;5018345;28;20179;-76
2022/03/29 00:27:36;;;;;;;57.63;28.15;;;;;;;;;;4985745;28;20071;-76
2022/03/29 00:30:03;;;;;;;54.72;27.63;;;;;;;;;;4983722;28;20047;-76
2022/03/29 00:32:32;;;;;;;57.15;28.10;;;;;;;;;;5018249;28;20564;-76
2022/03/29 00:34:58;;;;;;;57.97;29.10;;;;;;;;;;5018224;28;20048;-77
2022/03/29 00:37:24;;;;;;;59.33;28.75;;;;;;;;;;5001381;28;21978;-76
2022/03/29 00:39:49;;;;;;;59.28;30.40;;;;;;;;;;5017159;28;20025;-76
2022/03/29 00:42:15;;;;;;;62.53;30.33;;;;;;;;;;5019477;28;20193;-76
2022/03/29 00:44:45;;;;;;;59.78;29.02;;;;;;;;;;4999992;28;20032;-76
2022/03/29 00:47:13;;;;;;;62.60;29.95;;;;;;;;;;5018246;28;20045;-77
2022/03/29 00:49:38;;;;;;;57.63;29.35;;;;;;;;;;5017229;28;20108;-77
2022/03/29 00:52:04;;;;;;;64.95;30.63;;;;;;;;;;5017824;28;20114;-77
2022/03/29 00:54:32;;;;;;;59.00;28.40;;;;;;;;;;5017408;28;20131;-76
2022/03/29 00:57:00;;;;;;;68.75;31.42;;;;;;;;;;5017814;28;20040;-76
2022/03/29 00:59:27;;;;;;;64.78;30.58;;;;;;;;;;5001964;28;20091;-76
2022/03/29 01:01:52;;;;;;;57.33;28.75;;;;;;;;;;5018060;28;20204;-75
2022/03/29 01:04:18;;;;;;;60.50;28.40;;;;;;;;;;5002411;28;20116;-76
2022/03/29 01:06:45;;;;;;;56.45;28.70;;;;;;;;;;5017975;28;20336;-76
2022/03/29 01:09:13;;;;;;;56.30;28.85;;;;;;;;;;5017795;28;20025;-76
2022/03/29 01:11:38;;;;;;;61.88;29.25;;;;;;;;;;5017097;28;22172;-76
2022/03/29 01:14:04;;;;;;;59.80;29.15;;;;;;;;;;5017752;28;20131;-78
2022/03/29 01:19:16;;;;;;;63.17;31.08;;;;;;;;;;5016847;28;20038;-77
2022/03/29 01:21:44;;;;;;;60.53;30.02;;;;;;;;;;5018489;28;20089;-77
2022/03/29 01:24:11;;;;;;;61.00;29.35;;;;;;;;;;5016575;28;20025;-77
2022/03/29 01:26:36;;;;;;;62.22;29.30;;;;;;;;;;4999675;28;20052;-77
2022/03/29 01:29:01;;;;;;;55.90;28.17;;;;;;;;;;5017229;28;20128;-77
2022/03/29 01:31:34;;;;;;;54.35;27.77;;;;;;;;;;4999528;28;20047;-76
2022/03/29 01:33:59;;;;;;;56.78;28.33;;;;;;;;;;5016810;28;20041;-75
2022/03/29 01:36:25;;;;;;;51.08;27.48;;;;;;;;;;5016287;28;20507;-77
2022/03/29 01:38:55;;;;;;;53.83;26.98;;;;;;;;;;5016674;28;20084;-77
2022/03/29 01:41:21;;;;;;;51.40;28.38;;;;;;;;;;5003843;28;20029;-77
2022/03/29 01:43:48;;;;;;;59.22;29.45;;;;;;;;;;5017094;28;20056;-76
2022/03/29 01:46:18;;;;;;;53.35;27.17;;;;;;;;;;5016633;28;20611;-77
2022/03/29 01:48:47;;;;;;;52.03;27.60;;;;;;;;;;5018118;28;21070;-76
2022/03/29 01:51:16;;;;;;;54.33;27.58;;;;;;;;;;4999460;28;20033;-76
2022/03/29 01:53:46;;;;;;;56.60;28.83;;;;;;;;;;5016830;28;20452;-76
2022/03/29 01:56:13;;;;;;;61.90;29.75;;;;;;;;;;5016492;28;20031;-76
2022/03/29 01:58:42;;;;;;;61.78;29.92;;;;;;;;;;5017764;28;20127;-76
2022/03/29 02:01:11;;;;;;;57.90;28.88;;;;;;;;;;5016653;28;20151;-76
2022/03/29 02:03:36;;;;;;;55.65;28.23;;;;;;;;;;5016962;28;20147;-76
2022/03/29 02:06:01;;;;;;;54.35;28.00;;;;;;;;;;5016992;28;20485;-77
2022/03/29 02:08:27;;;;;;;57.70;28.58;;;;;;;;;;5015930;28;20082;-76
2022/03/29 02:10:52;;;;;;;62.88;29.45;;;;;;;;;;5017282;28;20665;-76
2022/03/29 02:13:21;;;;;;;61.85;30.15;;;;;;;;;;5016216;28;20084;-76
2022/03/29 02:15:49;;;;;;;61.53;29.15;;;;;;;;;;5004351;28;20672;-77
2022/03/29 02:18:15;;;;;;;64.40;30.88;;;;;;;;;;5017538;28;20045;-77
2022/03/29 02:20:43;;;;;;;63.20;30.73;;;;;;;;;;5016795;28;20369;-77
2022/03/29 02:23:09;;;;;;;63.80;30.38;;;;;;;;;;5014331;28;20057;-77
2022/03/29 02:25:37;;;;;;;64.95;29.92;;;;;;;;;;4998884;28;20017;-77
2022/03/29 02:28:02;;;;;;;66.95;30.02;;;;;;;;;;4998469;28;20059;-76
2022/03/29 02:30:28;;;;;;;64.47;30.67;;;;;;;;;;4997814;28;20041;-75
2022/03/29 02:32:53;;;;;;;61.53;29.20;;;;;;;;;;4998296;28;20037;-76
2022/03/29 02:35:19;;;;;;;61.47;27.83;;;;;;;;;;5000571;28;20033;-76
2022/03/29 02:37:44;;;;;;;53.85;26.70;;;;;;;;;;4987004;28;20064;-76
2022/03/29 02:40:11;;;;;;;54.92;25.75;;;;;;;;;;5017191;28;20029;-76
2022/03/29 02:42:43;;;;;;;52.53;27.00;;;;;;;;;;4998405;28;22164;-78
2022/03/29 02:45:11;;;;;;;49.47;26.08;;;;;;;;;;5016157;28;20087;-71
2022/03/29 02:47:37;;;;;;;50.80;26.42;;;;;;;;;;5016086;28;22365;-72
2022/03/29 02:50:03;;;;;;;54.05;28.08;;;;;;;;;;5014919;28;20028;-71
2022/03/29 02:52:31;;;;;;;54.42;27.25;;;;;;;;;;5016514;28;20037;-72
2022/03/29 02:54:57;;;;;;;51.67;26.83;;;;;;;;;;4998209;28;20033;-71
2022/03/29 02:57:22;;;;;;;53.92;27.27;;;;;;;;;;5000986;28;20080;-72
2022/03/29 02:59:48;;;;;;;48.92;25.73;;;;;;;;;;5016622;28;20524;-71
2022/03/29 03:02:13;;;;;;;49.72;26.80;;;;;;;;;;5017441;28;20258;-72
2022/03/29 03:04:41;;;;;;;50.70;25.35;;;;;;;;;;5017844;28;20029;-71
2022/03/29 03:07:06;;;;;;;51.15;26.60;;;;;;;;;;5017479;28;20021;-71
2022/03/29 03:09:31;;;;;;;46.58;25.02;;;;;;;;;;4999155;28;20029;-71
2022/03/29 03:11:57;;;;;;;45.85;24.33;;;;;;;;;;4998016;28;20061;-72
2022/03/29 03:14:23;;;;;;;44.25;24.52;;;;;;;;;;5009718;28;20156;-71
2022/03/29 03:16:51;;;;;;;45.97;23.92;;;;;;;;;;5001019;28;20073;-71
2022/03/29 03:19:18;;;;;;;46.22;24.27;;;;;;;;;;5000570;28;20029;-71
2022/03/29 03:21:43;;;;;;;43.92;24.48;;;;;;;;;;5015312;28;20128;-72
2022/03/29 03:24:09;;;;;;;43.20;24.38;;;;;;;;;;4999186;28;20067;-72
2022/03/29 03:26:37;;;;;;;41.13;25.00;;;;;;;;;;4999997;28;21885;-71
2022/03/29 03:29:04;;;;;;;42.70;23.83;;;;;;;;;;5000090;28;21984;-71
2022/03/29 03:31:30;;;;;;;43.53;24.90;;;;;;;;;;4997623;28;20530;-71
2022/03/29 03:33:55;;;;;;;43.80;25.33;;;;;;;;;;4999804;28;20119;-72
2022/03/29 03:36:22;;;;;;;43.85;24.65;;;;;;;;;;5014347;28;20041;-71
2022/03/29 03:38:48;;;;;;;46.75;26.02;;;;;;;;;;4998311;28;20025;-71
2022/03/29 03:41:18;;;;;;;44.42;25.42;;;;;;;;;;4998066;28;20346;-71
2022/03/29 03:43:46;;;;;;;46.55;26.20;;;;;;;;;;5013938;28;20026;-71
2022/03/29 03:46:11;;;;;;;46.70;25.90;;;;;;;;;;4997919;28;20508;-71
2022/03/29 03:48:39;;;;;;;45.45;25.02;;;;;;;;;;4998953;28;20038;-72
2022/03/29 03:51:06;;;;;;;46.08;24.75;;;;;;;;;;4999576;28;20034;-71
2022/03/29 03:53:34;;;;;;;42.65;24.75;;;;;;;;;;4999494;28;20202;-71
2022/03/29 03:56:00;;;;;;;44.70;25.58;;;;;;;;;;4998352;28;21840;-71
2022/03/29 03:58:25;;;;;;;45.92;26.70;;;;;;;;;;4998974;28;20064;-71
2022/03/29 04:00:53;;;;;;;42.58;25.05;;;;;;;;;;4998407;28;20029;-71
2022/03/29 04:03:21;;;;;;;42.38;25.15;;;;;;;;;;4998842;28;20065;-71
2022/03/29 04:05:48;;;;;;;40.65;24.23;;;;;;;;;;4997604;28;20029;-71
2022/03/29 04:08:13;;;;;;;44.78;24.27;;;;;;;;;;5014679;28;20120;-71
2022/03/29 04:10:41;;;;;;;43.78;25.35;;;;;;;;;;4997912;28;20033;-70
2022/03/29 04:13:07;;;;;;;49.53;24.30;;;;;;;;;;5003648;28;20540;-71
2022/03/29 04:15:32;;;;;;;45.15;24.65;;;;;;;;;;5018260;28;20029;-71
2022/03/29 04:18:00;;;;;;;47.30;25.35;;;;;;;;;;5018799;28;20028;-71
2022/03/29 04:20:29;;;;;;;45.92;25.35;;;;;;;;;;5016563;28;20131;-72
2022/03/29 04:22:55;;;;;;;43.42;24.52;;;;;;;;;;5019380;28;20088;-71
2022/03/29 04:25:23;;;;;;;42.53;23.90;;;;;;;;;;5018854;28;20115;-71
2022/03/29 04:27:48;;;;;;;41.42;23.52;;;;;;;;;;5017438;28;20070;-71
2022/03/29 04:30:13;;;;;;;44.45;24.45;;;;;;;;;;4991151;28;20500;-72
2022/03/29 04:32:39;;;;;;;40.38;23.90;;;;;;;;;;5000318;28;20075;-71
2022/03/29 04:35:05;;;;;;;44.63;24.33;;;;;;;;;;5007581;28;20028;-72
2022/03/29 04:37:30;;;;;;;41.25;24.33;;;;;;;;;;5018371;28;20532;-72
2022/03/29 04:39:58;;;;;;;43.25;24.95;;;;;;;;;;5002758;28;20044;-71
2022/03/29 04:42:26;;;;;;;43.45;24.65;;;;;;;;;;5017586;28;20033;-72
2022/03/29 04:44:54;;;;;;;40.70;24.42;;;;;;;;;;5018065;28;20040;-72
2022/03/29 04:47:25;;;;;;;43.33;24.30;;;;;;;;;;5018048;28;21027;-72
2022/03/29 04:49:52;;;;;;;45.00;25.50;;;;;;;;;;5007160;28;20634;-76
2022/03/29 04:52:18;;;;;;;42.88;25.10;;;;;;;;;;5017768;28;20021;-76
2022/03/29 04:54:43;;;;;;;40.22;25.02;;;;;;;;;;5007654;28;20362;-76
2022/03/29 04:57:08;;;;;;;48.65;25.73;;;;;;;;;;5000452;28;20037;-76
2022/03/29 04:59:36;;;;;;;41.83;24.83;;;;;;;;;;5017293;28;20041;-77
2022/03/29 05:02:06;;;;;;;41.60;24.75;;;;;;;;;;5017761;28;20029;-76
2022/03/29 05:04:31;;;;;;;40.92;24.58;;;;;;;;;;5005562;28;20566;-76
2022/03/29 05:06:57;;;;;;;41.08;24.85;;;;;;;;;;5002008;28;20099;-76
2022/03/29 05:09:23;;;;;;;46.88;25.67;;;;;;;;;;5018464;28;20056;-77
2022/03/29 05:11:49;;;;;;;42.00;24.17;;;;;;;;;;5001448;28;20037;-76
2022/03/29 05:14:14;;;;;;;41.88;25.17;;;;;;;;;;5017506;28;20109;-77
2022/03/29 05:16:43;;;;;;;40.20;24.38;;;;;;;;;;5017529;28;20064;-78
2022/03/29 05:19:13;;;;;;;44.55;25.10;;;;;;;;;;5000209;28;20095;-78
2022/03/29 05:21:38;;;;;;;43.03;23.95;;;;;;;;;;5011518;28;20033;-78
2022/03/29 05:24:05;;;;;;;41.15;24.67;;;;;;;;;;5017895;28;20106;-76
2022/03/29 05:26:33;;;;;;;40.50;24.48;;;;;;;;;;5007737;28;20250;-77
2022/03/29 05:29:02;;;;;;;42.60;24.75;;;;;;;;;;5017805;28;20085;-77
2022/03/29 05:31:27;;;;;;;44.45;25.95;;;;;;;;;;5018414;28;20138;-77
2022/03/29 05:33:53;;;;;;;42.70;26.25;;;;;;;;;;5004880;28;20033;-76
2022/03/29 05:36:18;;;;;;;41.38;23.90;;;;;;;;;;5015206;28;20028;-76
2022/03/29 05:38:48;;;;;;;41.42;24.40;;;;;;;;;;5002487;28;20068;-77
2022/03/29 05:41:19;;;;;;;;;;;;;;;;;;5015497;28;20080;-78
2022/03/29 05:43:49;;;;;;;41.90;23.90;;;;;;;;;;5016948;28;20312;-78
2022/03/29 05:49:03;;;;;;;43.00;25.02;;;;;;;;;;5015491;28;20800;-77
2022/03/29 05:51:31;;;;;;;41.70;25.08;;;;;;;;;;5013387;28;20532;-76
2022/03/29 05:54:00;;;;;;;43.63;24.92;;;;;;;;;;4998888;28;20527;-77
2022/03/29 05:56:28;;;;;;;42.40;25.02;;;;;;;;;;5003675;28;20219;-77
2022/03/29 05:58:53;;;;;;;43.40;24.87;;;;;;;;;;5015406;28;20031;-78
2022/03/29 06:01:19;;;;;;;42.03;25.38;;;;;;;;;;5016208;28;20029;-71
2022/03/29 06:03:44;;;;;;;50.70;25.45;;;;;;;;;;5016795;28;20413;-71
2022/03/29 06:06:10;;;;;;;40.63;24.75;;;;;;;;;;5016508;28;20025;-71
2022/03/29 06:08:38;;;;;;;42.70;25.67;;;;;;;;;;4998728;28;20800;-72
2022/03/29 06:11:04;;;;;;;39.83;24.92;;;;;;;;;;5014326;28;20267;-71
2022/03/29 06:13:29;;;;;;;39.70;25.08;;;;;;;;;;5015475;28;20053;-71
2022/03/29 06:15:55;;;;;;;38.13;24.30;;;;;;;;;;4997969;28;20062;-71
2022/03/29 06:18:23;;;;;;;41.33;25.40;;;;;;;;;;5016177;28;20099;-72
2022/03/29 06:20:50;;;;;;;41.95;25.88;;;;;;;;;;5017116;28;20037;-72
2022/03/29 06:23:19;;;;;;;40.20;24.20;;;;;;;;;;5017280;28;20033;-70
2022/03/29 06:25:44;;;;;;;44.13;26.85;;;;;;;;;;5001688;28;20520;-73
2022/03/29 06:28:13;;;;;;;43.42;24.80;;;;;;;;;;5016573;28;20124;-73
2022/03/29 06:30:41;;;;;;;39.25;24.08;;;;;;;;;;4984183;28;20291;-72
2022/03/29 06:33:10;;;;;;;40.97;25.42;;;;;;;;;;5015990;28;20155;-72
2022/03/29 06:35:37;;;;;;;40.92;24.67;;;;;;;;;;4999403;28;20078;-70
2022/03/29 06:38:03;;;;;;;40.72;25.35;;;;;;;;;;5016841;28;20044;-71
2022/03/29 06:40:31;;;;;;;41.42;25.55;;;;;;;;;;5000164;28;20051;-71
2022/03/29 06:43:00;;;;;;;41.03;25.48;;;;;;;;;;4998147;28;20043;-70
2022/03/29 06:45:28;;;;;;;42.33;26.45;;;;;;;;;;5015845;28;22311;-71
2022/03/29 06:47:54;;;;;;;44.53;26.70;;;;;;;;;;5016247;28;20475;-71
2022/03/29 06:50:20;;;;;;;39.80;25.17;;;;;;;;;;5017904;28;20052;-71
2022/03/29 06:52:46;;;;;;;37.65;25.73;;;;;;;;;;5020136;28;20032;-71
2022/03/29 06:55:12;;;;;;;39.15;25.20;;;;;;;;;;5020540;28;20547;-71
2022/03/29 06:57:38;;;;;;;38.20;25.30;;;;;;;;;;5020160;28;20036;-71
2022/03/29 07:00:04;;;;;;;43.65;26.02;;;;;;;;;;5002200;28;20087;-71
2022/03/29 07:02:30;;;;;;;42.22;27.13;;;;;;;;;;5003494;28;20086;-71
2022/03/29 07:04:55;;;;;;;41.15;26.70;;;;;;;;;;5019146;28;20037;-71
2022/03/29 07:07:23;;;;;;;43.80;26.85;;;;;;;;;;5019173;28;20058;-71
2022/03/29 07:12:34;;;;;;;41.58;25.83;;;;;;;;;;5019288;28;20491;-70
2022/03/29 07:14:59;;;;;;;41.45;27.23;;;;;;;;;;5020182;28;20033;-71
2022/03/29 07:17:28;;;;;;;42.63;26.45;;;;;;;;;;5019526;28;20028;-71
2022/03/29 07:19:53;;;;;;;42.50;27.52;;;;;;;;;;5018660;28;20471;-76
2022/03/29 07:22:19;;;;;;;44.92;26.55;;;;;;;;;;5020271;28;20017;-77
2022/03/29 07:24:44;;;;;;;39.35;27.02;;;;;;;;;;5017857;28;20260;-76
2022/03/29 07:27:10;;;;;;;46.63;27.38;;;;;;;;;;5018868;28;20025;-76
2022/03/29 07:29:36;;;;;;;43.70;27.27;;;;;;;;;;5018989;28;20123;-77
2022/03/29 07:32:06;;;;;;;40.47;26.75;;;;;;;;;;5003139;28;20031;-77
2022/03/29 07:34:35;;;;;;;46.95;26.80;;;;;;;;;;5018775;28;20044;-77
2022/03/29 07:37:02;;;;;;;40.42;26.38;;;;;;;;;;5003164;28;20380;-75
2022/03/29 07:39:27;;;;;;;39.22;25.60;;;;;;;;;;5005418;28;20040;-76
2022/03/29 07:41:54;;;;;;;38.63;26.05;;;;;;;;;;4999199;28;20021;-76
2022/03/29 07:44:20;;;;;;;38.50;24.50;;;;;;;;;;5000112;28;20262;-78
2022/03/29 07:46:47;;;;;;;35.40;24.73;;;;;;;;;;5016629;28;20040;-77
2022/03/29 07:49:13;;;;;;;36.80;24.92;;;;;;;;;;5018491;28;20060;-76
2022/03/29 07:51:39;;;;;;;36.17;24.42;;;;;;;;;;5002382;28;20035;-76
2022/03/29 07:54:07;;;;;;;37.47;25.05;;;;;;;;;;5017332;28;20540;-70
2022/03/29 07:56:34;;;;;;;37.60;25.27;;;;;;;;;;5000084;28;20052;-70
2022/03/29 07:58:59;;;;;;;35.42;24.08;;;;;;;;;;4999708;28;20162;-71
2022/03/29 08:01:25;;;;;;;35.13;23.17;;;;;;;;;;4984285;28;20560;-70
2022/03/29 08:03:51;;;;;;;35.00;23.85;;;;;;;;;;5017664;28;20025;-71
2022/03/29 08:06:19;;;;;;;33.53;21.90;;;;;;;;;;4985784;28;20116;-71
2022/03/29 08:08:44;;;;;;;33.47;23.05;;;;;;;;;;5017960;28;20295;-70
2022/03/29 08:11:11;;;;;;;32.70;21.27;;;;;;;;;;5017576;28;20041;-71
2022/03/29 08:13:39;;;;;;;32.67;22.42;;;;;;;;;;4999917;28;20102;-71
2022/03/29 08:16:07;;;;;;;31.17;20.80;;;;;;;;;;5016830;28;20041;-70
2022/03/29 08:18:35;;;;;;;29.23;20.17;;;;;;;;;;5017756;28;21898;-71
2022/03/29 08:21:01;;;;;;;30.23;20.58;;;;;;;;;;4999248;28;20140;-71
2022/03/29 08:23:26;;;;;;;27.58;19.58;;;;;;;;;;5017228;28;20771;-71
2022/03/29 08:25:54;;;;;;;32.85;20.30;;;;;;;;;;5000542;28;20053;-70
2022/03/29 08:28:21;;;;;;;30.20;19.60;;;;;;;;;;4998792;28;20056;-72
2022/03/29 08:30:48;;;;;;;28.60;18.95;;;;;;;;;;5003019;28;20657;-71
2022/03/29 08:33:19;;;;;;;27.95;19.00;;;;;;;;;;5000460;28;20607;-71
2022/03/29 08:35:45;;;;;;;27.90;18.10;;;;;;;;;;4997816;28;20033;-71
2022/03/29 08:38:14;;;;;;;28.40;18.35;;;;;;;;;;4999543;28;20593;-69
2022/03/29 08:40:43;;;;;;;27.90;18.38;;;;;;;;;;5017641;28;20079;-70
2022/03/29 08:43:08;;;;;;;28.17;19.30;;;;;;;;;;5016686;28;20039;-71
2022/03/29 08:45:34;;;;;;;33.03;20.48;;;;;;;;;;4998325;28;20022;-70
2022/03/29 08:48:02;;;;;;;27.13;18.27;;;;;;;;;;5001352;28;20404;-70
2022/03/29 08:50:30;;;;;;;26.35;18.40;;;;;;;;;;4999750;28;20189;-70
2022/03/29 08:52:58;;;;;;;31.20;20.05;;;;;;;;;;5016989;28;20029;-70
2022/03/29 08:55:23;;;;;;;31.40;20.08;;;;;;;;;;5005032;28;20465;-71
2022/03/29 08:57:58;;;;;;;30.60;19.38;;;;;;;;;;5016118;28;20075;-70
2022/03/29 09:00:24;;;;;;;30.50;19.70;;;;;;;;;;5016239;28;20040;-70
2022/03/29 09:02:52;;;;;;;29.30;19.23;;;;;;;;;;5016217;28;20464;-70
2022/03/29 09:05:21;;;;;;;27.17;18.50;;;;;;;;;;5016075;28;20129;-69
2022/03/29 09:07:58;;;;;;;28.08;18.60;;;;;;;;;;5016607;28;20055;-69
2022/03/29 09:10:44;;;;;;;33.15;19.33;;;;;;;;;;5016198;28;20095;-70
2022/03/29 09:13:25;;;;;;;28.42;19.13;;;;;;;;;;5013486;28;20045;-69
2022/03/29 09:15:57;;;;;;;29.02;19.55;;;;;;;;;;5016360;28;20044;-71
2022/03/29 09:18:25;;;;;;;28.60;19.50;;;;;;;;;;5016215;28;20063;-70
2022/03/29 09:21:06;;;;;;;28.67;19.15;;;;;;;;;;5016554;28;20029;-70
2022/03/29 09:23:33;;;;;;;33.03;20.47;;;;;;;;;;5016593;28;20064;-71
2022/03/29 09:26:01;;;;;;;28.50;18.77;;;;;;;;;;5000565;28;20060;-70
2022/03/29 09:28:32;;;;;;;28.48;19.13;;;;;;;;;;5016418;28;20819;-70
2022/03/29 09:30:58;;;;;;;25.98;18.13;;;;;;;;;;5014556;28;20556;-71
2022/03/29 09:33:30;;;;;;;26.38;17.60;;;;;;;;;;5014477;28;20052;-70
2022/03/29 09:35:57;;;;;;;26.20;19.27;;;;;;;;;;4997101;28;20043;-70
2022/03/29 09:38:27;;;;;;;28.42;19.65;;;;;;;;;;5000168;28;20035;-68
2022/03/29 09:40:54;;;;;;;30.42;20.67;;;;;;;;;;5015630;28;20065;-69
2022/03/29 09:43:26;;;;;;;29.02;19.33;;;;;;;;;;5014462;28;20089;-69
2022/03/29 09:45:52;;;;;;;28.47;20.63;;;;;;;;;;4980699;28;20129;-70
2022/03/29 09:48:20;;;;;;;35.17;22.25;;;;;;;;;;5014923;28;20037;-70
2022/03/29 09:50:45;;;;;;;35.40;22.15;;;;;;;;;;4997702;28;22071;-70
2022/03/29 09:53:31;;;;;;;30.35;20.33;;;;;;;;;;4996828;28;20557;-70
2022/03/29 09:55:59;;;;;;;27.08;18.67;;;;;;;;;;5015862;28;20090;-69
2022/03/29 09:58:25;;;;;;;34.20;20.05;;;;;;;;;;5017560;28;20025;-79
2022/03/29 10:00:53;;;;;;;29.90;19.90;;;;;;;;;;5013686;28;20021;-75
2022/03/29 10:03:23;;;;;;;29.95;19.92;;;;;;;;;;5014783;28;20025;-76
2022/03/29 10:05:49;;;;;;;29.10;19.88;;;;;;;;;;5015189;28;20028;-76
2022/03/29 10:11:05;;;;;;;32.63;19.63;;;;;;;;;;5016286;28;20102;-76
2022/03/29 10:13:36;;;;;;;32.78;19.83;;;;;;;;;;5015500;28;20057;-76
2022/03/29 10:16:04;;;;;;;30.67;19.67;;;;;;;;;;5014202;28;20032;-76
2022/03/29 10:18:30;;;;;;;30.52;19.45;;;;;;;;;;4998727;28;20044;-75
2022/03/29 10:20:56;;;;;;;32.42;20.00;;;;;;;;;;5000287;28;20171;-74
2022/03/29 10:23:24;;;;;;;29.83;20.30;;;;;;;;;;4998198;28;20039;-75
2022/03/29 10:25:51;;;;;;;34.65;20.65;;;;;;;;;;5015425;28;20039;-75
2022/03/29 10:28:20;;;;;;;31.70;21.15;;;;;;;;;;5016305;28;20087;-75
2022/03/29 10:30:47;;;;;;;32.05;20.08;;;;;;;;;;4998566;28;20021;-75
2022/03/29 10:33:26;;;;;;;32.85;20.48;;;;;;;;;;5015481;28;20147;-74
2022/03/29 10:36:09;;;;;;;29.80;20.40;;;;;;;;;;5000967;28;20654;-75
2022/03/29 10:38:49;;;;;;;31.25;20.73;;;;;;;;;;5015602;28;20029;-75
2022/03/29 10:41:27;;;;;;;30.20;20.10;;;;;;;;;;5016068;28;20052;-76
2022/03/29 10:44:01;;;;;;;32.15;21.17;;;;;;;;;;5015235;28;20036;-75
2022/03/29 10:46:39;;;;;;;32.55;21.35;;;;;;;;;;5013998;28;20532;-76
2022/03/29 10:49:24;;;;;;;27.63;19.77;;;;;;;;;;4982291;28;21986;-76
2022/03/29 10:51:53;;;;;;;33.25;20.48;;;;;;;;;;5015247;28;20037;-75
2022/03/29 10:54:28;;;;;;;32.03;20.50;;;;;;;;;;5013623;28;20198;-74
2022/03/29 10:57:03;;;;;;;31.83;21.48;;;;;;;;;;5014190;28;20140;-75
2022/03/29 10:59:36;;;;;;;35.42;20.77;;;;;;;;;;5015030;28;20047;-74
2022/03/29 11:02:15;;;;;;;32.92;19.85;;;;;;;;;;5015880;28;20437;-70
2022/03/29 11:04:59;;;;;;;29.92;19.98;;;;;;;;;;5017538;28;20029;-71
2022/03/29 11:07:24;;;;;;;28.50;20.02;;;;;;;;;;5016275;28;20496;-70
2022/03/29 11:10:05;;;;;;;29.90;20.08;;;;;;;;;;5013805;28;20091;-71
2022/03/29 11:12:38;;;;;;;29.23;20.75;;;;;;;;;;5015304;28;20484;-70
2022/03/29 11:15:21;;;;;;;28.48;19.98;;;;;;;;;;5015915;28;20049;-69
2022/03/29 11:17:47;;;;;;;31.55;21.42;;;;;;;;;;5014760;28;20494;-70
2022/03/29 11:20:42;;;;;;;28.27;19.58;;;;;;;;;;5019314;28;20037;-69
2022/03/29 11:23:11;;;;;;;30.52;20.30;;;;;;;;;;5007035;28;20041;-71
2022/03/29 11:25:45;;;;;;;28.02;20.15;;;;;;;;;;5016181;28;20020;-70
2022/03/29 11:28:12;;;;;;;27.98;19.75;;;;;;;;;;5014804;28;20088;-75
2022/03/29 11:30:37;;;;;;;28.65;20.30;;;;;;;;;;4986409;28;20090;-74
2022/03/29 11:33:06;;;;;;;29.13;20.08;;;;;;;;;;5015618;28;20032;-74
2022/03/29 11:35:35;;;;;;;32.60;22.17;;;;;;;;;;4998898;28;20326;-75
2022/03/29 11:38:08;;;;;;;32.53;21.00;;;;;;;;;;5005607;28;20033;-75
2022/03/29 11:40:37;;;;;;;29.85;20.33;;;;;;;;;;5018501;28;20120;-75
2022/03/29 11:43:05;;;;;;;30.70;19.95;;;;;;;;;;5001987;28;21925;-73
2022/03/29 11:45:39;;;;;;;27.60;20.10;;;;;;;;;;5017697;28;20170;-73
2022/03/29 11:48:07;;;;;;;30.33;20.02;;;;;;;;;;5019899;28;20559;-76
2022/03/29 11:50:32;;;;;;;29.20;19.17;;;;;;;;;;5016966;28;20028;-76
2022/03/29 11:53:14;;;;;;;30.83;21.02;;;;;;;;;;5019719;28;20530;-75
2022/03/29 11:55:39;;;;;;;28.80;20.10;;;;;;;;;;5017971;28;20029;-76
2022/03/29 11:58:19;;;;;;;30.52;19.80;;;;;;;;;;5001540;28;20426;-75
2022/03/29 12:00:44;;;;;;;28.80;20.48;;;;;;;;;;5003362;28;20037;-75
2022/03/29 12:03:12;;;;;;;29.25;19.90;;;;;;;;;;5019246;28;20070;-75
2022/03/29 12:05:37;;;;;;;29.23;20.50;;;;;;;;;;5016696;28;20064;-76
2022/03/29 12:08:03;;;;;;;30.92;19.55;;;;;;;;;;5017968;28;20503;-76
2022/03/29 12:10:32;;;;;;;30.35;19.67;;;;;;;;;;4999981;28;20139;-76
2022/03/29 12:13:03;;;;;;;30.48;20.05;;;;;;;;;;5002536;28;20067;-76
2022/03/29 12:15:28;;;;;;;31.45;20.63;;;;;;;;;;5018530;28;20163;-75
2022/03/29 12:20:43;;;;;;;28.25;20.50;;;;;;;;;;5018742;28;20503;-76
2022/03/29 12:23:22;;;;;;;33.47;21.15;;;;;;;;;;5018777;28;20244;-76
2022/03/29 12:25:47;;;;;;;28.55;19.90;;;;;;;;;;5009576;28;20025;-76
2022/03/29 12:28:13;;;;;;;28.92;20.27;;;;;;;;;;5002891;28;20650;-75
2022/03/29 12:30:38;;;;;;;29.27;20.50;;;;;;;;;;5017546;28;20194;-76
2022/03/29 12:33:04;;;;;;;31.98;20.45;;;;;;;;;;5001020;28;20025;-76
2022/03/29 12:35:30;;;;;;;28.83;18.90;;;;;;;;;;5015247;28;20057;-76
2022/03/29 12:38:03;;;;;;;28.17;20.23;;;;;;;;;;4984426;28;20124;-76
2022/03/29 12:40:31;;;;;;;28.63;19.33;;;;;;;;;;5013976;28;20060;-76
2022/03/29 12:43:24;;;;;;;29.80;19.75;;;;;;;;;;5017258;28;20199;-76
2022/03/29 12:45:50;;;;;;;26.38;18.85;;;;;;;;;;5012107;28;20233;-75
2022/03/29 12:48:21;;;;;;;28.77;19.73;;;;;;;;;;5016360;28;20094;-74
2022/03/29 12:50:47;;;;;;;27.73;19.50;;;;;;;;;;4998783;28;20499;-76
2022/03/29 12:53:14;;;;;;;28.17;19.15;;;;;;;;;;4983490;28;20029;-75
2022/03/29 12:55:52;;;;;;;28.42;19.77;;;;;;;;;;5000586;28;20036;-75
2022/03/29 12:58:28;;;;;;;30.42;19.13;;;;;;;;;;5015174;28;20059;-77
2022/03/29 13:00:54;;;;;;;28.58;19.92;;;;;;;;;;5003080;28;20036;-76
2022/03/29 13:03:20;;;;;;;27.65;18.95;;;;;;;;;;4999974;28;20060;-76
2022/03/29 13:05:47;;;;;;;30.05;19.73;;;;;;;;;;5000938;28;20136;-75
2022/03/29 13:08:18;;;;;;;30.15;20.27;;;;;;;;;;5015361;28;20544;-76
2022/03/29 13:10:44;;;;;;;27.13;19.00;;;;;;;;;;5015451;28;20071;-76
2022/03/29 13:13:19;;;;;;;34.30;19.77;;;;;;;;;;4996454;28;20093;-76
2022/03/29 13:15:56;;;;;;;29.80;19.00;;;;;;;;;;5015097;28;20045;-76
2022/03/29 13:18:29;;;;;;;26.98;18.30;;;;;;;;;;5015843;28;20052;-75
2022/03/29 13:21:13;;;;;;;24.42;18.80;;;;;;;;;;5016317;28;20024;-75
2022/03/29 13:23:43;;;;;;;26.42;18.08;;;;;;;;;;5014144;28;20177;-74
2022/03/29 13:26:10;;;;;;;30.65;19.15;;;;;;;;;;5015374;28;20048;-74
2022/03/29 13:28:37;;;;;;;25.33;18.33;;;;;;;;;;5015710;28;20110;-74
2022/03/29 13:31:06;;;;;;;28.67;18.23;;;;;;;;;;4970386;28;20072;-74
2022/03/29 13:33:33;;;;;;;28.50;18.27;;;;;;;;;;5015775;28;20027;-76
2022/03/29 13:36:04;;;;;;;30.02;19.88;;;;;;;;;;4983644;28;21966;-76
2022/03/29 13:38:29;;;;;;;27.88;18.88;;;;;;;;;;4999634;28;20083;-74
2022/03/29 13:40:54;;;;;;;29.80;18.98;;;;;;;;;;4997210;28;20072;-76
2022/03/29 13:43:20;;;;;;;28.88;18.30;;;;;;;;;;4997134;28;20033;-76
2022/03/29 13:45:46;;;;;;;26.77;18.08;;;;;;;;;;5014879;28;20095;-77
2022/03/29 13:48:12;;;;;;;25.83;18.70;;;;;;;;;;5015927;28;20506;-77
2022/03/29 13:50:38;;;;;;;31.70;19.27;;;;;;;;;;5015766;28;20061;-76
2022/03/29 13:53:03;;;;;;;28.45;20.20;;;;;;;;;;5016283;28;20866;-77
2022/03/29 13:55:32;;;;;;;33.78;19.80;;;;;;;;;;5003633;28;20091;-76
2022/03/29 13:58:03;;;;;;;28.27;20.38;;;;;;;;;;4982277;28;20347;-76
2022/03/29 14:00:29;;;;;;;27.92;19.50;;;;;;;;;;4981922;28;20040;-77
2022/03/29 14:02:54;;;;;;;30.27;20.25;;;;;;;;;;5003659;28;20021;-77
2022/03/29 14:05:25;;;;;;;29.67;19.35;;;;;;;;;;5015214;28;20547;-77
2022/03/29 14:07:50;;;;;;;28.48;19.38;;;;;;;;;;5015019;28;20022;-77
2022/03/29 14:10:16;;;;;;;29.02;18.95;;;;;;;;;;4996538;28;20082;-77
2022/03/29 14:12:41;;;;;;;28.35;19.38;;;;;;;;;;5013989;28;20087;-77
2022/03/29 14:15:08;;;;;;;26.05;18.80;;;;;;;;;;5013627;28;20229;-76
2022/03/29 14:17:33;;;;;;;29.52;19.73;;;;;;;;;;5015780;28;20049;-76
2022/03/29 14:19:59;;;;;;;35.10;20.05;;;;;;;;;;5013194;28;20113;-78
2022/03/29 14:22:24;;;;;;;31.67;19.60;;;;;;;;;;5015529;28;20049;-78
2022/03/29 14:24:50;;;;;;;33.10;21.13;;;;;;;;;;5015043;28;20063;-78
2022/03/29 14:27:16;;;;;;;31.42;20.25;;;;;;;;;;5014532;28;20060;-78
2022/03/29 14:29:42;;;;;;;31.98;19.15;;;;;;;;;;5014177;28;20484;-78
2022/03/29 14:32:09;;;;;;;29.30;19.75;;;;;;;;;;4997428;28;20037;-77
2022/03/29 14:34:35;;;;;;;28.38;20.88;;;;;;;;;;4997101;28;20562;-76
2022/03/29 14:37:01;;;;;;;30.83;20.05;;;;;;;;;;5014091;28;20072;-78